createdAt,value
2023-02-22T01:46:26.637Z,99569.31
2023-02-22T01:49:12.990Z,99575.28
2023-02-22T01:52:40.147Z,99561.94
2023-02-22T01:57:31.044Z,99566.44
2023-02-22T02:00:24.978Z,99580.84
2023-02-22T02:04:04.912Z,99591.16
2023-02-22T02:06:52.451Z,99594.66
2023-02-22T02:10:19.154Z,99613.59
2023-02-22T02:13:14.409Z,99615.75
2023-02-22T02:18:25.182Z,99626.03
2023-02-22T02:27:24.551Z,99636.13
2023-02-22T03:01:07.617Z,99716.59
2023-02-22T03:21:20.699Z,99749.09
2023-02-22T03:40:25.817Z,99752.03
2023-02-22T03:44:41.613Z,99750.91
2023-02-22T03:49:01.930Z,99750.38
2023-02-22T03:53:58.336Z,99751.91
2023-02-22T03:58:19.913Z,99748.72
2023-02-22T04:01:16.571Z,99767.44
2023-02-22T04:13:24.746Z,99761.03
2023-02-22T04:25:57.340Z,99779.78
2023-02-22T04:29:36.892Z,99787.25
2023-02-22T04:37:18.013Z,99800.16
2023-02-22T04:51:25.918Z,99827.38
2023-02-22T05:03:21.459Z,99872.34
2023-02-22T05:06:23.665Z,99875.06
2023-02-22T05:09:04.091Z,99891.00
2023-02-22T05:11:53.569Z,99904.66
2023-02-22T05:15:40.040Z,99908.38
2023-02-22T05:18:13.482Z,99917.28
2023-02-22T05:21:24.834Z,99923.72
2023-02-22T05:24:45.394Z,99915.16
2023-02-22T05:27:21.611Z,99919.84
2023-02-22T05:29:56.902Z,99913.25
2023-02-22T05:32:48.068Z,99916.16
2023-02-22T05:35:24.060Z,99913.81
2023-02-22T05:38:03.909Z,99906.69
2023-02-22T05:40:53.843Z,99912.44
2023-02-22T05:43:25.645Z,99923.25
2023-02-22T05:46:10.370Z,99929.47
2023-02-22T05:49:05.739Z,99934.16
2023-02-22T05:51:43.303Z,99947.97
2023-02-22T05:54:29.637Z,99961.22
2023-02-22T05:57:30.724Z,99962.63
2023-02-22T06:00:46.092Z,99978.94
2023-02-22T06:03:25.406Z,99980.44
2023-02-22T06:06:41.851Z,99978.34
2023-02-22T06:09:25.116Z,99967.38
2023-02-22T06:12:43.461Z,99972.91
2023-02-22T06:15:41.137Z,99961.38
2023-02-22T06:18:16.720Z,99962.09
2023-02-22T06:20:53.364Z,99967.75
2023-02-22T06:23:43.471Z,99976.22
2023-02-22T06:26:31.156Z,99966.75
2023-02-22T06:29:09.088Z,99973.22
2023-02-22T06:31:50.967Z,99995.00
2023-02-22T06:34:35.345Z,100007.53
2023-02-22T06:37:06.892Z,100011.19
2023-02-22T06:39:39.617Z,100032.53
2023-02-22T06:42:17.602Z,100026.22
2023-02-22T06:45:24.326Z,100018.59
2023-02-22T06:48:00.585Z,100022.41
2023-02-22T06:50:49.570Z,100026.06
2023-02-22T06:53:25.649Z,100033.72
2023-02-22T06:56:07.570Z,100016.59
2023-02-22T06:58:40.303Z,100006.09
2023-02-22T07:01:11.793Z,100020.22
2023-02-22T07:03:44.670Z,100023.06
2023-02-22T07:06:19.416Z,100021.72
2023-02-22T07:08:53.669Z,100010.91
2023-02-22T07:11:47.594Z,99999.94
2023-02-22T07:14:41.660Z,100019.38
2023-02-22T07:17:29.360Z,100014.06
2023-02-22T07:20:21.544Z,100017.41
2023-02-22T07:23:09.848Z,100023.50
2023-02-22T07:25:56.842Z,100012.91
2023-02-22T07:28:37.945Z,100007.53
2023-02-22T07:31:16.600Z,100010.19
2023-02-22T07:34:06.076Z,100000.53
2023-02-22T07:36:44.272Z,99995.72
2023-02-22T07:39:15.094Z,99984.03
2023-02-22T07:41:46.130Z,99984.97
2023-02-22T07:44:29.406Z,99981.22
2023-02-22T07:47:18.572Z,99969.25
2023-02-22T07:49:50.384Z,99978.69
2023-02-22T07:52:24.904Z,99982.56
2023-02-22T07:55:08.670Z,99989.50
2023-02-22T07:57:48.571Z,99990.94
2023-02-22T08:00:41.568Z,99998.78
2023-02-22T08:03:35.563Z,100012.84
2023-02-22T08:06:17.271Z,100014.69
2023-02-22T08:11:47.902Z,100026.91
2023-02-22T08:14:20.162Z,100029.78
2023-02-22T08:16:53.237Z,100040.22
2023-02-22T08:19:32.639Z,100039.13
2023-02-22T08:22:09.504Z,100049.91
2023-02-22T08:24:53.706Z,100060.53
2023-02-22T08:27:37.259Z,100057.41
2023-02-22T08:30:12.347Z,100061.00
2023-02-22T08:32:45.200Z,100083.84
2023-02-22T08:35:24.563Z,100084.56
2023-02-22T08:38:08.948Z,100092.50
2023-02-22T08:40:44.751Z,100090.50
2023-02-22T08:43:19.752Z,100072.69
2023-02-22T08:45:56.867Z,100094.34
2023-02-22T08:48:39.286Z,100101.84
2023-02-22T08:51:13.545Z,100103.06
2023-02-22T08:53:54.979Z,100085.06
2023-02-22T08:56:48.091Z,100090.16
2023-02-22T08:59:19.842Z,100076.03
2023-02-22T09:01:49.636Z,100073.66
2023-02-22T09:04:32.964Z,100076.44
2023-02-22T09:07:13.485Z,100082.81
2023-02-22T09:09:48.752Z,100091.44
2023-02-22T09:12:32.976Z,100093.03
2023-02-22T09:15:16.549Z,100097.06
2023-02-22T09:17:49.541Z,100099.19
2023-02-22T09:20:31.398Z,100098.00
2023-02-22T09:23:21.599Z,100086.13
2023-02-22T09:26:01.466Z,100093.44
2023-02-22T09:28:47.625Z,100095.25
2023-02-22T09:31:25.133Z,100098.41
2023-02-22T09:33:56.691Z,100100.56
2023-02-22T09:36:53.158Z,100109.56
2023-02-22T09:39:24.612Z,100111.41
2023-02-22T09:42:07.956Z,100113.22
2023-02-22T09:44:54.837Z,100124.97
2023-02-22T09:47:35.639Z,100117.91
2023-02-22T09:50:33.968Z,100096.19
2023-02-22T09:53:41.388Z,100093.78
2023-02-22T09:56:22.275Z,100092.91
2023-02-22T09:59:10.465Z,100097.03
2023-02-22T10:01:49.450Z,100098.09
2023-02-22T10:04:55.928Z,100094.53
2023-02-22T10:08:11.716Z,100082.78
2023-02-22T10:11:13.586Z,100064.28
2023-02-22T10:14:11.999Z,100052.88
2023-02-22T10:17:12.717Z,100052.00
2023-02-22T10:20:19.678Z,100073.47
2023-02-22T10:23:17.458Z,100125.41
2023-02-22T10:26:00.363Z,100148.84
2023-02-22T10:29:02.396Z,100168.25
2023-02-22T10:32:04.166Z,100163.41
2023-02-22T10:35:07.794Z,100179.41
2023-02-22T10:37:47.793Z,100197.69
2023-02-22T10:40:40.659Z,100194.97
2023-02-22T10:43:16.834Z,100191.09
2023-02-22T10:46:04.701Z,100197.91
2023-02-22T10:48:42.057Z,100181.88
2023-02-22T10:51:17.887Z,100180.22
2023-02-22T10:54:23.934Z,100180.50
2023-02-22T10:57:18.989Z,100178.19
2023-02-22T10:59:49.273Z,100164.06
2023-02-22T11:02:40.603Z,100182.72
2023-02-22T11:05:39.274Z,100168.91
2023-02-22T11:08:19.854Z,100155.78
2023-02-22T11:11:16.156Z,100178.03
2023-02-22T11:14:19.959Z,100183.41
2023-02-22T11:20:41.655Z,100225.78
2023-02-22T11:23:33.402Z,100232.91
2023-02-22T11:26:16.069Z,100225.38
2023-02-22T11:28:56.726Z,100211.63
2023-02-22T11:31:48.576Z,100192.34
2023-02-22T11:34:45.870Z,100203.84
2023-02-22T11:37:37.891Z,100223.00
2023-02-22T11:40:52.707Z,100233.28
2023-02-22T11:43:48.131Z,100228.53
2023-02-22T11:46:21.988Z,100226.19
2023-02-22T11:49:24.675Z,100209.22
2023-02-22T11:52:48.056Z,100237.75
2023-02-22T11:55:44.329Z,100238.53
2023-02-22T11:58:52.039Z,100225.75
2023-02-22T12:01:40.244Z,100225.28
2023-02-22T12:04:40.074Z,100259.50
2023-02-22T12:07:48.057Z,100269.56
2023-02-22T12:10:35.887Z,100262.44
2023-02-22T12:13:34.166Z,100275.41
2023-02-22T12:16:10.138Z,100285.59
2023-02-22T12:19:05.143Z,100256.78
2023-02-22T12:21:49.862Z,100276.94
2023-02-22T12:24:57.927Z,100300.16
2023-02-22T12:28:18.995Z,100286.00
2023-02-22T12:31:25.905Z,100296.00
2023-02-22T12:34:36.273Z,100291.31
2023-02-22T12:37:29.863Z,100310.66
2023-02-22T12:40:39.662Z,100317.97
2023-02-22T12:43:56.221Z,100322.31
2023-02-22T12:46:53.205Z,100340.31
2023-02-22T12:49:56.338Z,100359.84
2023-02-22T12:52:56.516Z,100364.50
2023-02-22T12:55:46.571Z,100350.31
2023-02-22T12:58:47.677Z,100364.50
2023-02-22T13:01:26.201Z,100373.34
2023-02-22T13:04:48.158Z,100381.47
2023-02-22T13:07:20.781Z,100377.31
2023-02-22T13:11:17.588Z,100371.25
2023-02-22T13:14:16.507Z,100373.56
2023-02-22T13:17:04.702Z,100377.47
2023-02-22T13:20:16.165Z,100379.22
2023-02-22T13:23:07.557Z,100389.75
2023-02-22T13:29:48.928Z,100384.09
2023-02-22T13:32:25.197Z,100394.44
2023-02-22T13:36:08.052Z,100405.47
2023-02-22T13:39:17.069Z,100435.50
2023-02-22T13:42:49.160Z,100441.06
2023-02-22T13:46:12.409Z,100442.72
2023-02-22T13:49:25.764Z,100454.47
2023-02-22T13:52:49.549Z,100453.25
2023-02-22T13:55:40.825Z,100450.09
2023-02-22T13:58:24.642Z,100446.47
2023-02-22T14:04:52.082Z,100449.66
2023-02-22T14:07:29.250Z,100436.72
2023-02-22T14:10:47.614Z,100434.25
2023-02-22T14:13:32.732Z,100420.78
2023-02-22T14:16:11.815Z,100417.00
2023-02-22T14:18:53.252Z,100408.28
2023-02-22T14:21:25.939Z,100412.59
2023-02-22T14:24:17.112Z,100404.56
2023-02-22T14:27:18.052Z,100399.31
2023-02-22T14:29:57.506Z,100385.94
2023-02-22T14:32:37.465Z,100396.00
2023-02-22T14:35:36.038Z,100405.28
2023-02-22T14:38:24.335Z,100403.00
2023-02-22T14:41:01.966Z,100401.38
2023-02-22T14:43:42.901Z,100406.31
2023-02-22T14:46:35.701Z,100424.69
2023-02-22T14:49:20.995Z,100435.22
2023-02-22T14:52:21.493Z,100466.56
2023-02-22T14:55:24.326Z,100497.44
2023-02-22T14:58:31.811Z,100548.13
2023-02-22T15:01:27.274Z,100572.56
2023-02-22T15:04:25.589Z,100571.59
2023-02-22T15:07:23.918Z,100578.34
2023-02-22T15:10:08.677Z,100561.13
2023-02-22T15:12:55.926Z,100530.00
2023-02-22T15:15:52.988Z,100509.78
2023-02-22T15:18:53.753Z,100505.91
2023-02-22T15:21:33.801Z,100499.84
2023-02-22T15:24:12.176Z,100513.13
2023-02-22T15:27:02.562Z,100490.31
2023-02-22T15:29:45.505Z,100513.59
2023-02-22T15:32:37.386Z,100510.28
2023-02-22T15:35:17.574Z,100491.22
2023-02-22T15:38:13.335Z,100486.53
2023-02-22T15:40:52.810Z,100444.41
2023-02-22T15:43:36.161Z,100408.91
2023-02-22T15:46:12.758Z,100414.97
2023-02-22T15:48:45.908Z,100437.72
2023-02-22T15:51:21.729Z,100413.81
2023-02-22T15:53:55.768Z,100385.41
2023-02-22T15:56:37.529Z,100387.59
2023-02-22T15:59:35.155Z,100384.34
2023-02-22T16:02:08.258Z,100379.09
2023-02-22T16:04:48.536Z,100366.88
2023-02-22T16:07:46.143Z,100383.19
2023-02-22T16:10:40.708Z,100421.91
2023-02-22T16:13:45.420Z,100429.75
2023-02-22T16:16:49.014Z,100420.06
2023-02-22T16:19:56.144Z,100436.53
2023-02-22T16:22:50.046Z,100434.03
2023-02-22T16:25:36.826Z,100404.41
2023-02-22T16:28:37.106Z,100381.59
2023-02-22T16:31:12.123Z,100361.09
2023-02-22T16:33:48.419Z,100365.00
2023-02-22T16:36:24.306Z,100338.63
2023-02-22T16:38:53.431Z,100318.22
2023-02-22T16:41:32.361Z,100311.47
2023-02-22T16:44:12.399Z,100299.81
2023-02-22T16:46:47.722Z,100304.16
2023-02-22T16:49:17.996Z,100316.34
2023-02-22T16:52:17.947Z,100301.53
2023-02-22T16:54:52.103Z,100287.81
2023-02-22T16:57:36.320Z,100283.28
2023-02-22T17:00:36.120Z,100283.88
2023-02-22T17:03:20.785Z,100294.06
2023-02-22T17:05:55.875Z,100283.72
2023-02-22T17:08:46.102Z,100233.19
2023-02-22T17:11:20.160Z,100204.66
2023-02-22T17:13:54.012Z,100195.69
2023-02-22T17:16:27.668Z,100186.00
2023-02-22T17:19:09.509Z,100187.59
2023-02-22T17:21:44.091Z,100184.78
2023-02-22T17:24:25.803Z,100165.31
2023-02-22T17:27:05.753Z,100157.88
2023-02-22T17:29:37.274Z,100162.88
2023-02-22T17:32:14.134Z,100155.53
2023-02-22T17:34:45.275Z,100137.84
2023-02-22T17:37:19.576Z,100121.97
2023-02-22T17:39:50.114Z,100114.47
2023-02-22T17:42:32.646Z,100118.63
2023-02-22T17:45:05.975Z,100092.16
2023-02-22T17:47:37.504Z,100082.47
2023-02-22T17:50:21.239Z,100061.06
2023-02-22T17:52:54.052Z,100042.50
2023-02-22T17:55:32.359Z,100039.25
2023-02-22T17:58:32.655Z,100021.50
2023-02-22T18:01:26.050Z,100024.59
2023-02-22T18:04:08.028Z,100023.78
2023-02-22T18:06:44.957Z,100041.53
2023-02-22T18:09:22.162Z,100021.56
2023-02-22T18:11:55.607Z,100025.06
2023-02-22T18:14:32.725Z,100016.97
2023-02-22T18:17:07.602Z,100009.53
2023-02-22T18:19:40.556Z,100011.63
2023-02-22T18:22:40.949Z,99989.47
2023-02-22T18:25:35.876Z,99968.56
2023-02-22T18:28:23.450Z,99973.31
2023-02-22T18:31:16.750Z,99984.81
2023-02-22T18:33:53.545Z,99989.00
2023-02-22T18:36:37.733Z,99951.38
2023-02-22T18:39:16.058Z,99951.88
2023-02-22T18:41:49.392Z,99949.97
2023-02-22T18:44:25.682Z,99968.97
2023-02-22T18:47:07.953Z,99974.13
2023-02-22T18:50:13.858Z,99963.50
2023-02-22T18:57:20.414Z,99984.44
2023-02-22T18:59:52.871Z,99985.19
2023-02-22T19:02:32.198Z,99981.09
2023-02-22T19:05:07.906Z,99973.22
2023-02-22T19:07:41.771Z,99974.88
2023-02-22T19:10:15.519Z,99985.44
2023-02-22T19:12:48.305Z,99975.72
2023-02-22T19:15:26.149Z,99975.81
2023-02-22T19:18:09.730Z,99979.31
2023-02-22T19:21:03.934Z,99973.63
2023-02-22T19:23:40.920Z,99980.16
2023-02-22T19:26:13.794Z,99972.38
2023-02-22T19:28:48.368Z,99972.41
2023-02-22T19:31:34.259Z,99970.53
2023-02-22T19:34:18.067Z,99968.47
2023-02-22T19:36:52.282Z,99972.97
2023-02-22T19:42:09.133Z,99974.47
2023-02-22T19:44:43.818Z,99966.59
2023-02-22T19:47:15.232Z,99972.03
2023-02-22T19:49:47.912Z,99973.69
2023-02-22T19:52:20.208Z,99963.78
2023-02-22T19:54:52.241Z,99976.19
2023-02-22T19:57:25.333Z,99971.69
2023-02-22T20:00:15.917Z,99957.59
2023-02-22T20:02:50.587Z,99952.88
2023-02-22T20:05:22.106Z,99945.41
2023-02-22T20:07:56.184Z,99921.41
2023-02-22T20:10:37.413Z,99913.97
2023-02-22T20:13:13.172Z,99906.72
2023-02-22T20:15:48.554Z,99912.06
2023-02-22T20:18:21.862Z,99908.09
2023-02-22T20:20:56.403Z,99900.09
2023-02-22T20:23:41.650Z,99887.47
2023-02-22T20:26:30.230Z,99887.03
2023-02-22T20:29:13.393Z,99888.88
2023-02-22T20:31:50.832Z,99897.41
2023-02-22T20:34:26.069Z,99892.91
2023-02-22T20:37:06.032Z,99914.78
2023-02-22T20:39:40.037Z,99924.91
2023-02-22T20:42:17.436Z,99933.59
2023-02-22T20:44:51.816Z,99936.19
2023-02-22T20:47:24.559Z,99930.09
2023-02-22T20:49:55.925Z,99935.88
2023-02-22T20:52:37.250Z,99942.84
2023-02-22T20:55:14.086Z,99932.03
2023-02-22T20:57:47.637Z,99933.91
2023-02-22T21:00:20.507Z,99916.78
2023-02-22T21:02:52.126Z,99908.66
2023-02-22T21:05:23.253Z,99898.13
2023-02-22T21:08:01.284Z,99902.09
2023-02-22T21:10:52.461Z,99905.19
2023-02-22T21:13:23.780Z,99907.53
2023-02-22T21:15:56.005Z,99917.09
2023-02-22T21:18:38.945Z,99915.06
2023-02-22T21:21:14.233Z,99921.88
2023-02-22T21:23:52.078Z,99921.25
2023-02-22T21:26:36.010Z,99895.03
2023-02-22T21:29:12.759Z,99898.31
2023-02-22T21:31:43.905Z,99887.13
2023-02-22T21:34:20.431Z,99877.84
2023-02-22T21:36:51.849Z,99892.53
2023-02-22T21:39:23.591Z,99902.63
2023-02-22T21:41:53.594Z,99905.50
2023-02-22T21:44:35.590Z,99890.38
2023-02-22T21:47:06.246Z,99905.84
2023-02-22T21:49:42.049Z,99891.97
2023-02-22T21:52:16.936Z,99883.50
2023-02-22T21:54:50.339Z,99885.09
2023-02-22T21:57:24.418Z,99871.03
2023-02-22T21:59:57.091Z,99864.03
2023-02-22T22:02:44.023Z,99884.63
2023-02-22T22:05:25.319Z,99891.03
2023-02-22T22:08:25.833Z,99892.34
2023-02-22T22:11:05.893Z,99894.44
2023-02-22T22:13:42.079Z,99877.97
2023-02-22T22:16:21.890Z,99875.84
2023-02-22T22:19:01.500Z,99890.91
2023-02-22T22:21:40.150Z,99881.13
2023-02-22T22:24:13.671Z,99878.81
2023-02-22T22:26:46.222Z,99883.25
2023-02-22T22:29:20.581Z,99886.75
2023-02-22T22:32:07.510Z,99885.94
2023-02-22T22:34:40.140Z,99861.47
2023-02-22T22:37:13.246Z,99872.22
2023-02-22T22:39:45.766Z,99852.72
2023-02-22T22:42:17.911Z,99851.88
2023-02-22T22:44:52.104Z,99851.03
2023-02-22T22:47:23.981Z,99848.13
2023-02-22T22:50:13.496Z,99853.72
2023-02-22T22:52:48.316Z,99850.19
2023-02-22T22:55:21.791Z,99849.19
2023-02-22T22:57:53.796Z,99835.56
2023-02-22T23:00:48.053Z,99827.03
2023-02-22T23:03:20.168Z,99835.31
2023-02-22T23:05:52.903Z,99829.91
2023-02-22T23:08:36.987Z,99835.94
2023-02-22T23:11:13.230Z,99819.78
2023-02-22T23:13:44.814Z,99813.03
2023-02-22T23:16:16.791Z,99802.78
2023-02-22T23:23:37.633Z,99776.97
2023-02-22T23:26:20.692Z,99775.63
2023-02-22T23:28:54.195Z,99762.03
2023-02-22T23:31:36.999Z,99762.50
2023-02-22T23:34:14.202Z,99756.75
2023-02-22T23:36:52.965Z,99755.47
2023-02-22T23:39:25.943Z,99748.22
2023-02-22T23:42:09.875Z,99751.38
2023-02-22T23:44:44.699Z,99762.72
2023-02-22T23:47:19.969Z,99761.13
2023-02-22T23:50:21.949Z,99769.16
2023-02-22T23:53:12.703Z,99763.63
2023-02-22T23:55:50.900Z,99754.88
2023-02-22T23:58:40.516Z,99749.09
